Time;durP1;ratioP1;P1;durP2;ratioP2;P2;SDS_P1;SDS_P2;PMS_P1;PMS_P2;Temp;Humidity;BMP_temperature;BMP_pressure;BME280_temperature;BME280_humidity;BME280_pressure;Samples;Min_cycle;Max_cycle;Signal;HPM_P1;HPM_P2
2022/03/14 00:01:48;;;;;;;5.15;3.60;;;;;;;9.12;100.00;101627.44;5226305;28;20017;-77
2022/03/14 00:04:18;;;;;;;5.55;3.45;;;;;;;9.11;100.00;101634.59;5225671;28;20070;-76
2022/03/14 00:06:49;;;;;;;4.65;3.33;;;;;;;9.09;100.00;101639.28;5226190;28;20021;-76
2022/03/14 00:09:19;;;;;;;8.00;3.75;;;;;;;9.05;100.00;101636.00;5226317;28;20025;-76
2022/03/14 00:11:51;;;;;;;5.20;3.28;;;;;;;9.06;100.00;101639.53;5224569;28;20098;-76
2022/03/14 00:14:22;;;;;;;6.00;3.55;;;;;;;9.05;100.00;101646.72;5224445;28;20048;-76
2022/03/14 00:16:54;;;;;;;6.63;3.70;;;;;;;9.06;100.00;101651.09;5225710;28;20020;-76
2022/03/14 00:19:24;;;;;;;5.18;3.30;;;;;;;9.05;100.00;101649.41;5225963;28;20448;-76
2022/03/14 00:21:55;;;;;;;8.40;3.60;;;;;;;9.04;100.00;101654.91;5225936;28;20059;-76
2022/03/14 00:24:25;;;;;;;6.43;3.63;;;;;;;9.05;100.00;101656.59;5225388;28;20495;-76
2022/03/14 00:26:56;;;;;;;4.82;3.17;;;;;;;9.04;100.00;101660.25;5211959;28;20025;-76
2022/03/14 00:29:28;;;;;;;5.50;3.47;;;;;;;8.95;100.00;101648.53;5224452;28;20066;-76
2022/03/14 00:32:00;;;;;;;6.35;3.67;;;;;;;8.92;100.00;101656.81;5225557;28;20029;-76
2022/03/14 00:34:30;;;;;;;4.72;3.08;;;;;;;8.86;100.00;101660.03;5225298;28;20509;-77
2022/03/14 00:37:01;;;;;;;6.75;3.55;;;;;;;8.84;100.00;101662.00;5225982;28;20051;-76
2022/03/14 00:39:32;;;;;;;6.00;3.60;;;;;;;8.80;100.00;101669.44;5225269;28;20496;-76
2022/03/14 00:42:03;;;;;;;5.28;3.22;;;;;;;8.83;100.00;101665.63;5224926;28;20129;-77
2022/03/14 00:44:34;;;;;;;5.40;3.42;;;;;;;8.82;100.00;101674.66;5223845;28;20025;-76
2022/03/14 00:47:05;;;;;;;5.05;3.20;;;;;;;8.81;100.00;101660.44;5224064;28;20031;-76
2022/03/14 00:49:35;;;;;;;5.43;3.35;;;;;;;8.86;100.00;101670.75;5225142;28;20021;-77
2022/03/14 00:52:06;;;;;;;5.35;3.28;;;;;;;8.88;100.00;101674.09;5224717;28;20029;-76
2022/03/14 00:54:37;;;;;;;6.90;2.75;;;;;;;8.87;100.00;101680.44;5225053;28;20574;-76
2022/03/14 00:57:08;;;;;;;5.53;3.13;;;;;;;8.91;100.00;101683.72;5225102;28;20025;-76
2022/03/14 00:59:39;;;;;;;5.75;2.95;;;;;;;8.96;100.00;101700.22;5223946;28;20504;-76
2022/03/14 01:02:10;;;;;;;4.22;2.40;;;;;;;9.02;100.00;101703.19;5223967;28;20031;-76
2022/03/14 01:04:40;;;;;;;4.43;2.80;;;;;;;8.99;100.00;101695.44;5223379;28;20449;-76
2022/03/14 01:07:11;;;;;;;4.63;3.00;;;;;;;8.98;100.00;101704.44;5225138;28;20111;-77
2022/03/14 01:09:42;;;;;;;4.22;2.65;;;;;;;8.98;100.00;101711.63;5223806;28;20024;-76
2022/03/14 01:12:12;;;;;;;6.07;3.20;;;;;;;9.04;100.00;101717.31;5224735;28;20059;-76
2022/03/14 01:14:43;;;;;;;4.60;2.80;;;;;;;9.08;100.00;101732.09;5223401;28;20350;-76
2022/03/14 01:17:14;;;;;;;3.85;2.35;;;;;;;9.04;100.00;101748.56;5224599;28;20108;-76
2022/03/14 01:19:44;;;;;;;7.13;3.47;;;;;;;9.03;100.00;101744.19;5224947;28;20103;-76
2022/03/14 01:22:15;;;;;;;5.40;2.33;;;;;;;9.00;100.00;101748.00;5224734;28;20025;-76
2022/03/14 01:24:45;;;;;;;5.18;3.00;;;;;;;9.06;100.00;101754.63;5222140;28;20025;-76
2022/03/14 01:27:15;;;;;;;6.07;2.50;;;;;;;9.05;100.00;101748.44;5213384;28;20032;-76
2022/03/14 01:29:46;;;;;;;4.97;2.70;;;;;;;8.96;100.00;101751.91;5224446;28;20472;-76
2022/03/14 01:32:17;;;;;;;4.47;2.45;;;;;;;9.03;100.00;101769.13;5223432;28;20370;-76
2022/03/14 01:34:47;;;;;;;3.72;2.35;;;;;;;9.02;100.00;101774.59;5224070;28;20029;-76
2022/03/14 01:37:18;;;;;;;4.53;2.90;;;;;;;8.97;100.00;101780.34;5225176;28;20025;-76
2022/03/14 01:39:49;;;;;;;5.05;3.05;;;;;;;8.96;100.00;101784.03;5207079;28;20465;-76
2022/03/14 01:42:20;;;;;;;5.72;2.80;;;;;;;8.93;100.00;101786.94;5229997;28;20116;-76
2022/03/14 01:44:51;;;;;;;4.30;2.65;;;;;;;8.96;100.00;101793.88;5229606;28;20017;-76
2022/03/14 01:47:21;;;;;;;7.10;3.25;;;;;;;8.92;100.00;101804.00;5226630;28;20028;-76
2022/03/14 01:49:52;;;;;;;4.25;2.85;;;;;;;8.90;100.00;101805.13;5224338;28;20032;-76
2022/03/14 01:52:23;;;;;;;4.60;2.60;;;;;;;8.94;100.00;101802.06;5222875;28;20502;-76
2022/03/14 01:54:53;;;;;;;3.83;2.60;;;;;;;8.91;100.00;101813.00;5228323;28;20108;-76
2022/03/14 01:57:24;;;;;;;5.65;2.90;;;;;;;8.88;100.00;101802.56;5228497;28;20036;-76
2022/03/14 01:59:55;;;;;;;10.13;3.40;;;;;;;8.88;100.00;101799.03;5228719;28;20067;-76
2022/03/14 02:02:27;;;;;;;7.13;2.88;;;;;;;8.92;100.00;101797.78;5227808;28;20028;-76
2022/03/14 02:04:58;;;;;;;4.00;2.63;;;;;;;8.96;100.00;101804.59;5228150;28;20070;-76
2022/03/14 02:07:29;;;;;;;6.38;3.58;;;;;;;8.92;100.00;101819.22;5229097;28;20568;-77
2022/03/14 02:09:59;;;;;;;5.53;3.50;;;;;;;8.85;100.00;101813.53;5228640;28;20029;-76
2022/03/14 02:12:30;;;;;;;6.72;3.67;;;;;;;8.90;100.00;101816.66;5228579;28;20477;-76
2022/03/14 02:15:00;;;;;;;7.75;3.72;;;;;;;8.98;100.00;101826.69;5227085;28;20488;-76
2022/03/14 02:17:31;;;;;;;6.10;4.35;;;;;;;8.98;100.00;101832.91;5228083;28;20056;-76
2022/03/14 02:20:01;;;;;;;6.25;4.70;;;;;;;8.96;100.00;101836.72;5228434;28;20035;-76
2022/03/14 02:22:32;;;;;;;8.60;4.65;;;;;;;8.98;100.00;101835.56;5228380;28;20032;-76
2022/03/14 02:25:08;;;;;;;6.45;4.53;;;;;;;8.93;100.00;101840.47;5227673;28;20128;-76
2022/03/14 02:27:39;;;;;;;8.75;5.32;;;;;;;8.94;100.00;101850.22;5228381;28;20025;-76
2022/03/14 02:30:10;;;;;;;9.90;5.50;;;;;;;8.91;100.00;101845.13;5210067;28;20021;-76
2022/03/14 02:32:41;;;;;;;8.95;5.53;;;;;;;8.79;100.00;101855.06;5228186;28;20470;-76
2022/03/14 02:35:12;;;;;;;12.05;6.28;;;;;;;8.81;100.00;101868.28;5226715;28;20025;-76
2022/03/14 02:37:44;;;;;;;8.07;5.63;;;;;;;8.89;100.00;101875.69;5228328;28;20070;-76
2022/03/14 02:40:15;;;;;;;12.48;6.65;;;;;;;8.77;100.00;101870.38;5227461;28;20029;-76
2022/03/14 02:42:45;;;;;;;9.75;5.95;;;;;;;8.79;100.00;101872.94;5226791;28;20452;-76
2022/03/14 02:45:16;;;;;;;11.05;6.68;;;;;;;8.68;100.00;101871.13;5226556;28;20029;-76
2022/03/14 02:47:47;;;;;;;10.07;6.30;;;;;;;8.62;100.00;101870.81;5228043;28;20048;-76
2022/03/14 02:50:18;;;;;;;14.15;6.93;;;;;;;8.62;100.00;101874.34;5227890;28;20024;-75
2022/03/14 02:52:48;;;;;;;11.93;7.15;;;;;;;8.57;100.00;101873.88;5227796;28;20028;-76
2022/03/14 02:55:21;;;;;;;12.98;7.82;;;;;;;8.44;100.00;101879.41;5227589;28;20024;-76
2022/03/14 02:57:51;;;;;;;13.40;7.65;;;;;;;8.39;100.00;101886.97;5227748;28;20021;-76
2022/03/14 03:00:22;;;;;;;16.45;7.13;;;;;;;8.28;100.00;101889.63;5227478;28;20035;-76
2022/03/14 03:02:53;;;;;;;13.13;7.38;;;;;;;8.21;100.00;101893.78;5227579;28;20550;-76
2022/03/14 03:05:23;;;;;;;12.07;7.68;;;;;;;8.19;100.00;101895.75;5225668;28;20025;-76
2022/03/14 03:07:59;;;;;;;15.63;7.95;;;;;;;8.10;100.00;101897.34;5228025;28;20024;-76
2022/03/14 03:10:32;;;;;;;13.55;7.95;;;;;;;8.06;100.00;101911.91;5227284;28;20028;-76
2022/03/14 03:13:04;;;;;;;16.27;8.60;;;;;;;8.07;100.00;101916.28;5227293;28;20020;-76
2022/03/14 03:15:35;;;;;;;16.90;8.68;;;;;;;8.08;100.00;101926.00;5225850;28;20021;-76
2022/03/14 03:18:06;;;;;;;16.80;8.40;;;;;;;8.03;100.00;101926.38;5225725;28;20064;-75
2022/03/14 03:20:36;;;;;;;14.73;8.25;;;;;;;8.05;100.00;101931.59;5227199;28;20075;-76
2022/03/14 03:23:07;;;;;;;18.73;9.65;;;;;;;8.00;100.00;101950.69;5226839;28;20492;-76
2022/03/14 03:25:37;;;;;;;18.77;9.45;;;;;;;7.98;100.00;101957.09;5225459;28;20025;-76
2022/03/14 03:28:08;;;;;;;17.17;9.07;;;;;;;8.02;100.00;101975.44;5225670;28;20036;-76
2022/03/14 03:30:38;;;;;;;19.10;9.98;;;;;;;8.03;100.00;101965.59;5226763;28;20028;-76
2022/03/14 03:33:09;;;;;;;23.63;9.70;;;;;;;8.04;100.00;101975.34;5226925;28;20025;-76
2022/03/14 03:35:39;;;;;;;18.23;10.05;;;;;;;8.04;100.00;101973.50;5226686;28;20021;-76
2022/03/14 03:38:10;;;;;;;25.83;10.52;;;;;;;8.12;100.00;101974.72;5226980;28;20473;-76
2022/03/14 03:40:41;;;;;;;21.52;10.98;;;;;;;8.13;100.00;101981.75;5226240;28;20393;-76
2022/03/14 03:43:11;;;;;;;19.90;10.30;;;;;;;8.16;100.00;101986.88;5226794;28;20473;-76
2022/03/14 03:45:42;;;;;;;22.52;10.90;;;;;;;8.24;100.00;101987.13;5225419;28;20057;-76
2022/03/14 03:48:13;;;;;;;20.88;10.55;;;;;;;8.28;100.00;102000.13;5226901;28;20044;-76
2022/03/14 03:50:44;;;;;;;20.05;10.55;;;;;;;8.27;100.00;102003.72;5226309;28;20401;-76
2022/03/14 03:53:15;;;;;;;24.15;10.60;;;;;;;8.26;100.00;102004.72;5226408;28;20064;-76
2022/03/14 03:55:45;;;;;;;18.10;10.07;;;;;;;8.26;100.00;102009.22;5226045;28;20500;-76
2022/03/14 03:58:16;;;;;;;20.00;10.65;;;;;;;8.31;100.00;102012.38;5226471;28;20025;-76
2022/03/14 04:00:46;;;;;;;20.58;10.30;;;;;;;8.31;100.00;102013.22;5226050;28;20499;-76
2022/03/14 04:03:20;;;;;;;24.73;10.32;;;;;;;8.35;100.00;102024.53;5226524;28;20392;-76
2022/03/14 04:05:51;;;;;;;24.08;10.52;;;;;;;8.34;100.00;102025.50;5207655;28;20036;-76
2022/03/14 04:08:21;;;;;;;20.20;10.80;;;;;;;8.37;100.00;102029.78;5225924;28;20477;-76
2022/03/14 04:10:54;;;;;;;24.67;11.10;;;;;;;8.39;100.00;102034.03;5225946;28;20025;-76
2022/03/14 04:13:26;;;;;;;24.40;11.15;;;;;;;8.39;100.00;102036.72;5224751;28;20147;-76
2022/03/14 04:15:57;;;;;;;26.95;11.52;;;;;;;8.39;100.00;102034.03;5225669;28;20025;-76
2022/03/14 04:18:27;;;;;;;23.00;11.63;;;;;;;8.42;100.00;102040.94;5225672;28;20032;-76
2022/03/14 04:20:58;;;;;;;20.02;11.40;;;;;;;8.45;100.00;102051.41;5225993;28;20036;-76
2022/03/14 04:23:31;;;;;;;19.90;11.38;;;;;;;8.44;100.00;102061.25;5225809;28;20104;-76
2022/03/14 04:26:01;;;;;;;26.95;10.80;;;;;;;8.47;100.00;102060.16;5225470;28;20055;-76
2022/03/14 04:28:36;;;;;;;24.13;11.25;;;;;;;8.49;100.00;102066.25;5225612;28;20025;-76
2022/03/14 04:31:06;;;;;;;20.27;12.30;;;;;;;8.50;100.00;102068.78;5225303;28;20457;-76
2022/03/14 04:33:37;;;;;;;29.17;12.90;;;;;;;8.54;100.00;102080.94;5224611;28;20081;-76
2022/03/14 04:36:08;;;;;;;25.95;10.45;;;;;;;8.54;100.00;102077.44;5225330;28;20064;-76
2022/03/14 04:38:38;;;;;;;22.33;11.15;;;;;;;8.58;100.00;102081.53;5225707;28;20511;-76
2022/03/14 04:41:09;;;;;;;25.10;11.43;;;;;;;8.57;100.00;102087.84;5225249;28;20025;-76
2022/03/14 04:43:39;;;;;;;28.23;14.25;;;;;;;8.65;100.00;102090.78;5225447;28;20025;-76
2022/03/14 04:46:10;;;;;;;19.05;10.57;;;;;;;8.62;100.00;102085.66;5225079;28;20504;-76
2022/03/14 04:48:40;;;;;;;25.33;13.27;;;;;;;8.56;100.00;102087.00;5225774;28;20025;-76
2022/03/14 04:51:11;;;;;;;23.85;10.80;;;;;;;8.50;100.00;102097.34;5225838;28;20532;-75
2022/03/14 04:53:42;;;;;;;26.17;12.57;;;;;;;8.48;100.00;102101.97;5224179;28;20021;-76
2022/03/14 04:56:12;;;;;;;28.52;12.20;;;;;;;8.45;100.00;102113.78;5211861;28;20108;-76
2022/03/14 04:58:43;;;;;;;40.35;20.23;;;;;;;8.53;100.00;102118.50;5224334;28;20029;-76
2022/03/14 05:01:13;;;;;;;26.00;13.57;;;;;;;8.50;100.00;102124.94;5225191;28;20021;-76
2022/03/14 05:03:44;;;;;;;60.20;30.52;;;;;;;8.55;100.00;102127.25;5225315;28;20112;-76
2022/03/14 05:06:14;;;;;;;58.50;32.40;;;;;;;8.56;100.00;102129.81;5224471;28;20346;-76
2022/03/14 05:08:45;;;;;;;55.10;26.65;;;;;;;8.60;100.00;102129.56;5225495;28;20446;-76
2022/03/14 05:11:16;;;;;;;22.20;12.65;;;;;;;8.57;100.00;102134.19;5225314;28;20033;-76
2022/03/14 05:13:47;;;;;;;23.40;11.05;;;;;;;8.55;100.00;102133.47;5223773;28;20028;-76
2022/03/14 05:16:19;;;;;;;23.13;12.88;;;;;;;8.59;100.00;102136.75;5224740;28;20021;-76
2022/03/14 05:18:50;;;;;;;25.38;11.00;;;;;;;8.56;100.00;102143.19;5224527;28;20024;-76
2022/03/14 05:21:20;;;;;;;27.35;11.23;;;;;;;8.54;100.00;102144.28;5224920;28;20029;-76
2022/03/14 05:23:51;;;;;;;24.27;12.65;;;;;;;8.53;100.00;102150.59;5224832;28;20031;-76
2022/03/14 05:26:22;;;;;;;19.75;10.75;;;;;;;8.50;100.00;102154.38;5210702;28;20068;-76
2022/03/14 05:28:52;;;;;;;23.63;13.18;;;;;;;8.54;100.00;102155.00;5224195;28;20040;-76
2022/03/14 05:31:23;;;;;;;21.70;10.75;;;;;;;8.52;100.00;102149.75;5222181;28;20017;-76
2022/03/14 05:33:53;;;;;;;19.70;10.40;;;;;;;8.57;100.00;102154.72;5197003;28;20025;-76
2022/03/14 05:36:24;;;;;;;19.27;10.75;;;;;;;8.46;100.00;102155.56;5223005;28;20500;-76
2022/03/14 05:38:54;;;;;;;29.52;11.85;;;;;;;8.51;100.00;102161.41;5224764;28;20127;-76
2022/03/14 05:41:25;;;;;;;21.70;10.45;;;;;;;8.48;100.00;102160.81;5223217;28;20040;-76
2022/03/14 05:43:56;;;;;;;29.50;11.50;;;;;;;8.47;100.00;102165.31;5223749;28;20044;-76
2022/03/14 05:46:26;;;;;;;23.60;11.02;;;;;;;8.47;100.00;102167.13;5224237;28;20528;-76
2022/03/14 05:48:57;;;;;;;30.67;12.90;;;;;;;8.44;100.00;102173.59;5224651;28;20082;-76
2022/03/14 05:51:27;;;;;;;22.73;10.88;;;;;;;8.45;100.00;102180.63;5223588;28;20021;-76
2022/03/14 05:53:58;;;;;;;25.52;10.55;;;;;;;8.45;100.00;102185.13;5224251;28;20063;-76
2022/03/14 05:56:28;;;;;;;22.33;11.88;;;;;;;8.48;100.00;102190.22;5224204;28;20455;-76
2022/03/14 05:58:59;;;;;;;23.73;11.73;;;;;;;8.53;100.00;102198.72;5224586;28;20786;-76
2022/03/14 06:01:30;;;;;;;29.17;16.48;;;;;;;8.56;100.00;102198.50;5224297;28;20119;-77
2022/03/14 06:04:01;;;;;;;21.88;12.65;;;;;;;8.52;100.00;102202.38;5224395;28;20107;-77
2022/03/14 06:06:31;;;;;;;19.60;11.15;;;;;;;8.50;100.00;102210.53;5223992;28;20021;-77
2022/03/14 06:09:02;;;;;;;25.75;11.10;;;;;;;8.44;100.00;102216.38;5224513;28;20472;-77
2022/03/14 06:11:32;;;;;;;28.73;11.82;;;;;;;8.46;100.00;102218.91;5224462;28;20557;-77
2022/03/14 06:14:03;;;;;;;25.92;12.35;;;;;;;8.42;100.00;102226.31;5223430;28;20481;-76
2022/03/14 06:16:34;;;;;;;23.75;11.75;;;;;;;8.54;100.00;102228.06;5223214;28;20025;-76
2022/03/14 06:19:04;;;;;;;28.48;11.30;;;;;;;8.48;100.00;102231.22;5224265;28;20495;-76
2022/03/14 06:21:35;;;;;;;29.00;11.30;;;;;;;8.48;100.00;102233.00;5224452;28;20028;-76
2022/03/14 06:24:08;;;;;;;23.05;11.45;;;;;;;8.42;100.00;102239.69;5223263;28;20055;-76
2022/03/14 06:26:39;;;;;;;23.08;11.82;;;;;;;8.43;100.00;102241.38;5223066;28;20025;-77
2022/03/14 06:29:10;;;;;;;23.05;11.07;;;;;;;8.36;100.00;102240.16;5223154;28;20155;-76
2022/03/14 06:31:40;;;;;;;24.55;12.38;;;;;;;8.36;100.00;102236.63;5223937;28;20033;-76
2022/03/14 06:34:11;;;;;;;25.13;11.45;;;;;;;8.37;100.00;102257.06;5223651;28;20161;-75
2022/03/14 06:36:42;;;;;;;26.38;13.07;;;;;;;8.36;100.00;102256.22;5224090;28;20119;-75
2022/03/14 06:39:12;;;;;;;25.45;11.98;;;;;;;8.40;100.00;102257.69;5223817;28;20258;-77
2022/03/14 06:41:44;;;;;;;32.83;12.32;;;;;;;8.43;100.00;102262.78;5227844;28;20025;-75
2022/03/14 06:44:15;;;;;;;25.10;11.82;;;;;;;8.50;100.00;102274.72;5227085;28;20029;-77
2022/03/14 06:46:45;;;;;;;30.02;15.00;;;;;;;8.57;100.00;102264.41;5227821;28;20067;-77
2022/03/14 06:49:16;;;;;;;27.50;12.60;;;;;;;8.64;100.00;102264.81;5226438;28;20032;-77
2022/03/14 06:51:47;;;;;;;25.75;12.52;;;;;;;8.69;100.00;102274.16;5227809;28;20031;-77
2022/03/14 06:54:18;;;;;;;24.25;12.93;;;;;;;8.67;100.00;102275.25;5226257;28;20025;-77
2022/03/14 06:56:49;;;;;;;24.77;12.45;;;;;;;8.66;100.00;102282.41;5227745;28;20031;-77
2022/03/14 06:59:20;;;;;;;26.45;12.23;;;;;;;8.70;100.00;102283.03;5226231;28;20028;-77
2022/03/14 07:01:50;;;;;;;27.58;13.55;;;;;;;8.64;100.00;102296.91;5227573;28;20025;-77
2022/03/14 07:04:21;;;;;;;23.38;12.75;;;;;;;8.70;100.00;102296.41;5227113;28;20028;-77
2022/03/14 07:06:51;;;;;;;23.25;12.52;;;;;;;8.68;100.00;102298.34;5226074;28;20060;-77
2022/03/14 07:09:22;;;;;;;25.45;11.48;;;;;;;8.75;100.00;102303.13;5226111;28;20028;-77
2022/03/14 07:11:53;;;;;;;25.13;12.05;;;;;;;8.85;100.00;102302.41;5225814;28;20035;-77
2022/03/14 07:14:23;;;;;;;20.88;11.18;;;;;;;8.87;100.00;102311.16;5227021;28;20027;-77
2022/03/14 07:16:54;;;;;;;27.60;11.98;;;;;;;8.95;100.00;102312.28;5227126;28;20021;-77
2022/03/14 07:19:25;;;;;;;28.00;11.80;;;;;;;8.89;100.00;102312.75;5225550;28;20021;-77
2022/03/14 07:21:55;;;;;;;23.67;11.05;;;;;;;8.75;100.00;102315.66;5227023;28;20035;-77
2022/03/14 07:24:26;;;;;;;26.65;12.80;;;;;;;8.93;100.00;102318.69;5226473;28;20021;-76
2022/03/14 07:26:56;;;;;;;23.15;12.75;;;;;;;9.29;100.00;102321.19;5226810;28;20025;-76
2022/03/14 07:29:27;;;;;;;25.73;10.98;;;;;;;9.64;100.00;102321.97;5226375;28;20104;-77
2022/03/14 07:31:57;;;;;;;20.27;10.40;;;;;;;9.87;100.00;102318.28;5225621;28;20098;-77
2022/03/14 07:34:31;;;;;;;20.02;10.68;;;;;;;9.99;100.00;102325.34;5225250;28;20025;-76
2022/03/14 07:37:01;;;;;;;21.75;10.35;;;;;;;9.94;100.00;102327.53;5226800;28;20044;-76
2022/03/14 07:39:32;;;;;;;24.17;11.32;;;;;;;9.84;100.00;102330.13;5226720;28;20021;-78
2022/03/14 07:42:02;;;;;;;19.33;10.48;;;;;;;9.55;100.00;102329.81;5227437;28;20513;-75
2022/03/14 07:44:33;;;;;;;18.25;9.30;;;;;;;9.45;100.00;102333.34;5226842;28;20037;-75
2022/03/14 07:47:06;;;;;;;24.17;10.07;;;;;;;9.50;100.00;102333.84;5226063;28;20025;-77
2022/03/14 07:49:36;;;;;;;23.85;11.10;;;;;;;9.56;100.00;102344.03;5226284;28;20033;-80
2022/03/14 07:52:07;;;;;;;27.25;12.57;;;;;;;9.52;100.00;102350.63;5225431;28;20043;-76
2022/03/14 07:54:38;;;;;;;18.65;10.57;;;;;;;9.78;100.00;102352.03;5221592;28;20032;-72
2022/03/14 07:57:08;;;;;;;24.45;11.02;;;;;;;9.72;100.00;102362.41;5226459;28;20771;-73
2022/03/14 07:59:39;;;;;;;19.92;10.23;;;;;;;9.83;100.00;102365.06;5236210;28;20028;-74
2022/03/14 08:02:10;;;;;;;22.30;9.90;;;;;;;9.72;100.00;102363.25;5231470;28;20027;-73
2022/03/14 08:04:42;;;;;;;19.55;9.65;;;;;;;9.72;100.00;102362.41;5227527;28;20016;-74
2022/03/14 08:07:14;;;;;;;23.00;9.27;;;;;;;9.75;100.00;102359.50;5244587;28;20020;-73
2022/03/14 08:09:44;;;;;;;20.17;8.77;;;;;;;9.92;100.00;102377.72;5236530;28;20112;-72
2022/03/14 08:12:16;;;;;;;18.00;7.63;;;;;;;10.06;100.00;102376.63;5228148;28;20067;-72
2022/03/14 08:14:47;;;;;;;18.13;7.82;;;;;;;10.07;100.00;102381.84;5229365;28;20112;-73
2022/03/14 08:17:18;;;;;;;18.33;8.52;;;;;;;9.95;100.00;102384.69;5242784;28;20432;-73
2022/03/14 08:19:49;;;;;;;25.15;8.75;;;;;;;10.12;100.00;102384.16;5230386;28;20020;-73
2022/03/14 08:22:20;;;;;;;18.58;8.02;;;;;;;10.48;100.00;102382.13;5231572;28;20025;-73
2022/03/14 08:24:50;;;;;;;14.90;7.38;;;;;;;10.52;100.00;102384.41;5226837;28;20036;-73
2022/03/14 08:27:21;;;;;;;25.30;8.88;;;;;;;10.61;100.00;102386.31;5220093;28;20199;-74
2022/03/14 08:29:51;;;;;;;17.90;7.72;;;;;;;10.76;100.00;102386.88;5231304;28;20582;-74
2022/03/14 08:32:22;;;;;;;22.80;8.32;;;;;;;10.92;100.00;102381.03;5223197;28;20037;-73
2022/03/14 08:34:53;;;;;;;20.40;7.10;;;;;;;10.79;100.00;102378.56;5224844;28;20024;-72
2022/03/14 08:37:23;;;;;;;19.45;8.00;;;;;;;10.81;100.00;102389.16;5225813;28;20036;-73
2022/03/14 08:39:54;;;;;;;17.58;9.02;;;;;;;10.63;100.00;102405.81;5245010;28;20035;-72
2022/03/14 08:42:24;;;;;;;23.05;7.68;;;;;;;10.70;100.00;102410.69;5246476;28;20052;-73
2022/03/14 08:44:55;;;;;;;23.10;7.30;;;;;;;11.01;100.00;102409.81;5224286;28;20020;-79
2022/03/14 08:47:26;;;;;;;24.77;8.90;;;;;;;11.22;100.00;102419.69;5208871;28;20108;-76
2022/03/14 08:49:56;;;;;;;20.92;8.75;;;;;;;11.00;100.00;102416.16;5223947;28;20031;-75
2022/03/14 08:52:27;;;;;;;21.10;7.30;;;;;;;11.08;100.00;102423.53;5224605;28;20112;-75
2022/03/14 08:54:58;;;;;;;17.83;8.02;;;;;;;11.25;100.00;102422.13;5244991;28;20020;-76
2022/03/14 08:57:28;;;;;;;25.95;9.40;;;;;;;11.39;100.00;102429.81;5244522;28;20028;-75
2022/03/14 08:59:59;;;;;;;23.00;9.23;;;;;;;12.63;100.00;102424.13;5234375;28;20024;-75
2022/03/14 09:02:29;;;;;;;21.77;10.52;;;;;;;12.39;100.00;102435.28;5236879;28;20028;-78
2022/03/14 09:05:00;;;;;;;28.70;9.65;;;;;;;12.22;100.00;102438.66;5224063;28;20108;-82
2022/03/14 09:07:31;;;;;;;25.90;10.13;;;;;;;11.82;100.00;102447.59;5223648;28;20481;-75
2022/03/14 09:10:04;;;;;;;19.80;7.30;;;;;;;11.54;100.00;102449.97;5242091;28;20035;-78
2022/03/14 09:12:37;;;;;;;18.45;6.38;;;;;;;11.28;100.00;102454.91;5224849;28;20020;-80
2022/03/14 09:15:10;;;;;;;22.80;7.13;;;;;;;11.25;100.00;102454.34;5248238;28;20028;-80
2022/03/14 09:17:59;;;;;;;24.75;8.25;;;;;;;11.06;100.00;102461.28;5250439;28;20040;-80
2022/03/14 09:20:30;;;;;;;21.30;6.50;;;;;;;11.11;100.00;102467.13;5243902;28;20032;-77
2022/03/14 09:23:01;;;;;;;24.30;7.05;;;;;;;11.12;100.00;102471.50;5237632;28;20029;-74
2022/03/14 09:25:31;;;;;;;19.52;6.22;;;;;;;11.17;100.00;102484.53;5223552;28;20053;-75
2022/03/14 09:28:03;;;;;;;14.73;5.90;;;;;;;11.37;100.00;102482.84;5236999;28;20025;-74
2022/03/14 09:30:33;;;;;;;12.73;6.30;;;;;;;11.77;100.00;102492.84;5224900;28;20116;-74
2022/03/14 09:33:04;;;;;;;12.05;5.50;;;;;;;11.38;100.00;102492.59;5221878;28;20153;-75
2022/03/14 09:35:34;;;;;;;13.77;5.57;;;;;;;11.41;100.00;102501.25;5234430;28;20057;-74
2022/03/14 09:38:05;;;;;;;23.23;6.47;;;;;;;11.25;100.00;102516.16;5231057;28;20046;-74
2022/03/14 09:40:35;;;;;;;19.00;5.82;;;;;;;10.84;100.00;102528.50;5232401;28;20029;-74
2022/03/14 09:43:07;;;;;;;21.92;7.10;;;;;;;10.29;100.00;102516.91;5223458;28;20021;-73
2022/03/14 09:45:39;;;;;;;25.05;6.18;;;;;;;10.19;100.00;102516.78;5236391;28;20120;-74
2022/03/14 09:48:11;;;;;;;16.42;6.63;;;;;;;10.11;100.00;102522.75;5222277;28;20053;-74
2022/03/14 09:50:44;;;;;;;17.67;7.60;;;;;;;10.11;100.00;102533.47;5222907;28;20029;-74
2022/03/14 09:53:17;;;;;;;25.38;10.05;;;;;;;10.08;100.00;102533.72;5222425;28;20025;-75
2022/03/14 09:55:48;;;;;;;23.77;7.32;;;;;;;10.07;100.00;102532.00;5222999;28;20052;-74
2022/03/14 09:58:20;;;;;;;20.55;7.18;;;;;;;10.10;100.00;102537.16;5234766;28;20019;-75
2022/03/14 10:00:51;;;;;;;30.33;7.60;;;;;;;10.26;100.00;102536.81;5224639;28;20489;-76
2022/03/14 10:03:22;;;;;;;28.83;8.55;;;;;;;10.47;100.00;102544.94;5221760;28;20031;-74
2022/03/14 10:05:53;;;;;;;17.45;6.13;;;;;;;10.50;100.00;102547.38;5222256;28;20079;-74
2022/03/14 10:08:24;;;;;;;18.30;5.93;;;;;;;10.19;100.00;102554.34;5222341;28;20033;-74
2022/03/14 10:10:54;;;;;;;17.85;5.40;;;;;;;10.09;100.00;102562.25;5221273;28;20056;-75
2022/03/14 10:13:25;;;;;;;16.92;5.78;;;;;;;9.97;100.00;102571.25;5223331;28;20052;-74
2022/03/14 10:15:55;;;;;;;28.67;6.88;;;;;;;9.88;100.00;102571.13;5237056;28;20016;-74
2022/03/14 10:18:26;;;;;;;16.42;6.18;;;;;;;9.81;100.00;102573.44;5234207;28;20216;-74
2022/03/14 10:21:05;;;;;;;21.38;6.75;;;;;;;10.01;100.00;102577.22;5237356;28;20025;-74
2022/03/14 10:23:37;;;;;;;16.25;5.43;;;;;;;10.02;100.00;102581.63;5227999;28;20036;-74
2022/03/14 10:26:11;;;;;;;15.75;5.63;;;;;;;10.14;100.00;102580.66;5227056;28;20032;-74
2022/03/14 10:28:48;;;;;;;22.55;6.07;;;;;;;10.17;100.00;102584.91;5232242;28;20029;-75
2022/03/14 10:31:33;;;;;;;16.08;5.78;;;;;;;10.42;100.00;102591.91;5226752;28;20025;-75
2022/03/14 10:34:10;;;;;;;12.77;5.43;;;;;;;10.50;100.00;102586.78;5227370;28;20064;-75
2022/03/14 10:36:54;;;;;;;20.88;6.28;;;;;;;10.77;100.00;102591.75;5240588;28;20024;-75
2022/03/14 10:39:28;;;;;;;12.60;5.20;;;;;;;10.96;100.00;102589.25;5226706;28;20036;-74
2022/03/14 10:42:00;;;;;;;16.08;5.75;;;;;;;10.83;100.00;102585.88;5225588;28;20017;-74
2022/03/14 10:44:32;;;;;;;20.00;5.45;;;;;;;10.70;100.00;102588.72;5226777;28;20036;-74
2022/03/14 10:47:05;;;;;;;17.48;5.93;;;;;;;10.71;100.00;102593.09;5226702;28;20029;-75
2022/03/14 10:49:38;;;;;;;19.80;5.57;;;;;;;10.55;100.00;102598.00;5232381;28;20059;-74
2022/03/14 10:52:11;;;;;;;20.00;5.80;;;;;;;10.94;100.00;102596.56;5232945;28;20025;-75
2022/03/14 10:54:42;;;;;;;58.72;19.73;;;;;;;11.19;100.00;102600.75;5226345;28;20031;-75
2022/03/14 10:57:20;;;;;;;47.40;17.35;;;;;;;11.56;100.00;102592.31;5226619;28;20029;-75
2022/03/14 10:59:52;;;;;;;19.45;7.72;;;;;;;11.70;100.00;102591.13;5225124;28;20035;-74
2022/03/14 11:02:25;;;;;;;18.15;5.60;;;;;;;11.69;100.00;102603.72;5225038;28;20369;-74
2022/03/14 11:04:58;;;;;;;11.85;4.95;;;;;;;11.73;100.00;102598.94;5226199;28;20112;-74
2022/03/14 11:07:31;;;;;;;14.80;4.65;;;;;;;11.53;100.00;102592.56;5226503;28;20500;-75
2022/03/14 11:10:06;;;;;;;19.30;5.22;;;;;;;11.83;100.00;102600.72;5226130;28;20037;-75
2022/03/14 11:12:37;;;;;;;16.45;5.38;;;;;;;11.68;100.00;102607.38;5235025;28;20032;-74
2022/03/14 11:15:09;;;;;;;15.15;5.43;;;;;;;11.54;100.00;102611.25;5230542;28;20619;-74
2022/03/14 11:17:39;;;;;;;12.27;4.70;;;;;;;11.78;100.00;102612.84;5226343;28;20029;-75
2022/03/14 11:20:11;;;;;;;15.85;4.65;;;;;;;11.54;100.00;102616.63;5239229;28;20044;-75
2022/03/14 11:22:43;;;;;;;17.17;5.30;;;;;;;11.49;100.00;102613.47;5219556;28;20035;-75
2022/03/14 11:25:14;;;;;;;13.23;4.82;;;;;;;11.87;100.00;102618.31;5221342;28;20083;-74
2022/03/14 11:27:46;;;;;;;11.68;4.30;;;;;;;11.89;100.00;102626.25;5217902;28;20397;-75
2022/03/14 11:30:19;;;;;;;15.80;5.38;;;;;;;11.60;100.00;102617.97;5224520;28;20013;-75
2022/03/14 11:32:49;;;;;;;14.25;5.68;;;;;;;11.76;100.00;102625.56;5225683;28;20386;-74